sensor_id;sensor_type;location;lat;lon;timestamp;temperature;humidity
58809;DHT22;44579;51.672;7.834;2024-01-30T00:00:13;5.00;88.60
58809;DHT22;44579;51.672;7.834;2024-01-30T00:02:42;4.90;88.60
58809;DHT22;44579;51.672;7.834;2024-01-30T00:05:10;4.90;88.70
58809;DHT22;44579;51.672;7.834;2024-01-30T00:07:38;4.90;88.70
58809;DHT22;44579;51.672;7.834;2024-01-30T00:10:05;4.90;88.70
58809;DHT22;44579;51.672;7.834;2024-01-30T00:12:32;4.80;88.60
58809;DHT22;44579;51.672;7.834;2024-01-30T00:14:59;4.80;88.70
58809;DHT22;44579;51.672;7.834;2024-01-30T00:17:26;4.80;88.70
58809;DHT22;44579;51.672;7.834;2024-01-30T00:19:53;4.80;88.60
58809;DHT22;44579;51.672;7.834;2024-01-30T00:22:20;4.80;88.70
58809;DHT22;44579;51.672;7.834;2024-01-30T00:24:47;4.80;88.70
58809;DHT22;44579;51.672;7.834;2024-01-30T00:27:16;4.70;88.60
58809;DHT22;44579;51.672;7.834;2024-01-30T00:29:43;4.70;88.60
58809;DHT22;44579;51.672;7.834;2024-01-30T00:32:10;4.70;88.60
58809;DHT22;44579;51.672;7.834;2024-01-30T00:34:37;4.70;88.70
58809;DHT22;44579;51.672;7.834;2024-01-30T00:37:04;4.60;88.60
58809;DHT22;44579;51.672;7.834;2024-01-30T00:39:34;4.60;88.70
58809;DHT22;44579;51.672;7.834;2024-01-30T00:42:00;4.60;88.70
58809;DHT22;44579;51.672;7.834;2024-01-30T00:44:27;4.60;88.70
58809;DHT22;44579;51.672;7.834;2024-01-30T00:46:54;4.60;89.60
58809;DHT22;44579;51.672;7.834;2024-01-30T00:49:21;4.60;88.70
58809;DHT22;44579;51.672;7.834;2024-01-30T00:51:48;4.50;88.60
58809;DHT22;44579;51.672;7.834;2024-01-30T00:54:15;4.50;88.60
58809;DHT22;44579;51.672;7.834;2024-01-30T00:56:41;4.50;88.60
58809;DHT22;44579;51.672;7.834;2024-01-30T00:59:08;4.50;88.60
58809;DHT22;44579;51.672;7.834;2024-01-30T01:01:35;4.50;88.60
58809;DHT22;44579;51.672;7.834;2024-01-30T01:04:02;4.50;88.60
58809;DHT22;44579;51.672;7.834;2024-01-30T01:06:30;4.50;88.50
58809;DHT22;44579;51.672;7.834;2024-01-30T01:08:56;4.50;88.50
58809;DHT22;44579;51.672;7.834;2024-01-30T01:11:23;4.40;89.30
58809;DHT22;44579;51.672;7.834;2024-01-30T01:13:50;4.40;88.50
58809;DHT22;44579;51.672;7.834;2024-01-30T01:16:17;4.40;88.60
58809;DHT22;44579;51.672;7.834;2024-01-30T01:18:43;4.40;88.60
58809;DHT22;44579;51.672;7.834;2024-01-30T01:21:10;4.40;88.50
58809;DHT22;44579;51.672;7.834;2024-01-30T01:23:37;4.40;88.50
58809;DHT22;44579;51.672;7.834;2024-01-30T01:26:04;4.40;88.40
58809;DHT22;44579;51.672;7.834;2024-01-30T01:28:32;4.40;88.40
58809;DHT22;44579;51.672;7.834;2024-01-30T01:30:59;4.40;88.50
58809;DHT22;44579;51.672;7.834;2024-01-30T01:33:32;4.30;89.30
58809;DHT22;44579;51.672;7.834;2024-01-30T01:35:59;4.40;88.50
58809;DHT22;44579;51.672;7.834;2024-01-30T01:38:29;4.30;88.50
58809;DHT22;44579;51.672;7.834;2024-01-30T01:40:56;4.30;88.60
58809;DHT22;44579;51.672;7.834;2024-01-30T01:43:22;4.30;88.50
58809;DHT22;44579;51.672;7.834;2024-01-30T01:45:49;4.30;88.60
58809;DHT22;44579;51.672;7.834;2024-01-30T01:48:16;4.30;88.60
58809;DHT22;44579;51.672;7.834;2024-01-30T01:50:43;4.30;88.50
58809;DHT22;44579;51.672;7.834;2024-01-30T01:53:10;4.30;88.50
58809;DHT22;44579;51.672;7.834;2024-01-30T01:55:38;4.30;88.60
58809;DHT22;44579;51.672;7.834;2024-01-30T01:58:05;4.30;88.60
58809;DHT22;44579;51.672;7.834;2024-01-30T02:00:31;4.30;88.60
58809;DHT22;44579;51.672;7.834;2024-01-30T02:02:59;4.30;88.50
58809;DHT22;44579;51.672;7.834;2024-01-30T02:05:27;4.30;88.50
58809;DHT22;44579;51.672;7.834;2024-01-30T02:07:54;4.30;88.50
58809;DHT22;44579;51.672;7.834;2024-01-30T02:10:21;4.30;88.40
58809;DHT22;44579;51.672;7.834;2024-01-30T02:12:48;4.30;88.40
58809;DHT22;44579;51.672;7.834;2024-01-30T02:15:15;4.30;88.30
58809;DHT22;44579;51.672;7.834;2024-01-30T02:17:42;4.30;88.30
58809;DHT22;44579;51.672;7.834;2024-01-30T02:20:09;4.30;88.40
58809;DHT22;44579;51.672;7.834;2024-01-30T02:22:36;4.30;88.40
58809;DHT22;44579;51.672;7.834;2024-01-30T02:25:04;4.30;88.50
58809;DHT22;44579;51.672;7.834;2024-01-30T02:27:31;4.30;88.40
58809;DHT22;44579;51.672;7.834;2024-01-30T02:29:57;4.30;88.40
58809;DHT22;44579;51.672;7.834;2024-01-30T02:32:24;4.30;88.50
58809;DHT22;44579;51.672;7.834;2024-01-30T02:34:51;4.30;88.50
58809;DHT22;44579;51.672;7.834;2024-01-30T02:37:20;4.30;88.50
58809;DHT22;44579;51.672;7.834;2024-01-30T02:39:47;4.30;88.50
58809;DHT22;44579;51.672;7.834;2024-01-30T02:42:14;4.30;88.50
58809;DHT22;44579;51.672;7.834;2024-01-30T02:44:41;4.30;88.50
58809;DHT22;44579;51.672;7.834;2024-01-30T02:47:07;4.30;88.60
58809;DHT22;44579;51.672;7.834;2024-01-30T02:49:34;4.30;89.40
58809;DHT22;44579;51.672;7.834;2024-01-30T02:52:01;4.30;88.60
58809;DHT22;44579;51.672;7.834;2024-01-30T02:54:28;4.30;88.60
58809;DHT22;44579;51.672;7.834;2024-01-30T02:56:57;4.30;88.60
58809;DHT22;44579;51.672;7.834;2024-01-30T02:59:24;4.30;88.50
58809;DHT22;44579;51.672;7.834;2024-01-30T03:01:50;4.30;88.40
58809;DHT22;44579;51.672;7.834;2024-01-30T03:04:17;4.30;88.50
58809;DHT22;44579;51.672;7.834;2024-01-30T03:06:46;4.30;88.50
58809;DHT22;44579;51.672;7.834;2024-01-30T03:09:18;4.30;88.60
58809;DHT22;44579;51.672;7.834;2024-01-30T03:11:45;4.30;88.60
58809;DHT22;44579;51.672;7.834;2024-01-30T03:14:12;4.30;88.60
58809;DHT22;44579;51.672;7.834;2024-01-30T03:16:39;4.30;88.60
58809;DHT22;44579;51.672;7.834;2024-01-30T03:19:06;4.30;88.70
58809;DHT22;44579;51.672;7.834;2024-01-30T03:21:34;4.30;88.80
58809;DHT22;44579;51.672;7.834;2024-01-30T03:24:01;4.40;88.70
58809;DHT22;44579;51.672;7.834;2024-01-30T03:26:28;4.30;88.60
58809;DHT22;44579;51.672;7.834;2024-01-30T03:28:59;4.40;89.50
58809;DHT22;44579;51.672;7.834;2024-01-30T03:31:26;4.40;88.70
58809;DHT22;44579;51.672;7.834;2024-01-30T03:33:53;4.30;88.60
58809;DHT22;44579;51.672;7.834;2024-01-30T03:36:20;4.30;88.60
58809;DHT22;44579;51.672;7.834;2024-01-30T03:38:47;4.40;88.70
58809;DHT22;44579;51.672;7.834;2024-01-30T03:41:15;4.30;88.70
58809;DHT22;44579;51.672;7.834;2024-01-30T03:43:42;4.30;88.70
58809;DHT22;44579;51.672;7.834;2024-01-30T03:46:09;4.30;88.80
58809;DHT22;44579;51.672;7.834;2024-01-30T03:48:38;4.30;88.80
58809;DHT22;44579;51.672;7.834;2024-01-30T03:51:05;4.30;88.80
58809;DHT22;44579;51.672;7.834;2024-01-30T03:53:32;4.30;88.80
58809;DHT22;44579;51.672;7.834;2024-01-30T03:55:59;4.30;88.90
58809;DHT22;44579;51.672;7.834;2024-01-30T03:58:26;4.30;88.80
58809;DHT22;44579;51.672;7.834;2024-01-30T04:00:53;4.30;88.80
58809;DHT22;44579;51.672;7.834;2024-01-30T04:03:20;4.30;88.80
58809;DHT22;44579;51.672;7.834;2024-01-30T04:05:47;4.30;88.80
58809;DHT22;44579;51.672;7.834;2024-01-30T04:08:13;4.30;88.80
58809;DHT22;44579;51.672;7.834;2024-01-30T04:10:40;4.30;88.80
58809;DHT22;44579;51.672;7.834;2024-01-30T04:13:07;4.30;88.80
58809;DHT22;44579;51.672;7.834;2024-01-30T04:15:37;4.30;88.80
58809;DHT22;44579;51.672;7.834;2024-01-30T04:18:06;4.30;88.80
58809;DHT22;44579;51.672;7.834;2024-01-30T04:20:33;4.30;88.80
58809;DHT22;44579;51.672;7.834;2024-01-30T04:23:00;4.40;88.90
58809;DHT22;44579;51.672;7.834;2024-01-30T04:25:26;4.40;88.80
58809;DHT22;44579;51.672;7.834;2024-01-30T04:27:53;4.30;88.80
58809;DHT22;44579;51.672;7.834;2024-01-30T04:30:20;4.30;88.80
58809;DHT22;44579;51.672;7.834;2024-01-30T04:32:47;4.40;88.90
58809;DHT22;44579;51.672;7.834;2024-01-30T04:35:14;4.30;88.80
58809;DHT22;44579;51.672;7.834;2024-01-30T04:37:41;4.40;88.90
58809;DHT22;44579;51.672;7.834;2024-01-30T04:40:08;4.30;88.90
58809;DHT22;44579;51.672;7.834;2024-01-30T04:42:36;4.30;88.80
58809;DHT22;44579;51.672;7.834;2024-01-30T04:45:03;4.30;88.90
58809;DHT22;44579;51.672;7.834;2024-01-30T04:47:29;4.30;88.90
58809;DHT22;44579;51.672;7.834;2024-01-30T04:49:56;4.30;89.00
58809;DHT22;44579;51.672;7.834;2024-01-30T04:52:23;4.20;88.90
58809;DHT22;44579;51.672;7.834;2024-01-30T04:54:50;4.30;89.00
58809;DHT22;44579;51.672;7.834;2024-01-30T04:57:19;4.30;89.00
58809;DHT22;44579;51.672;7.834;2024-01-30T04:59:46;4.30;89.00
58809;DHT22;44579;51.672;7.834;2024-01-30T05:02:17;4.30;89.00
58809;DHT22;44579;51.672;7.834;2024-01-30T05:04:43;4.20;88.90
58809;DHT22;44579;51.672;7.834;2024-01-30T05:07:11;4.20;89.00
58809;DHT22;44579;51.672;7.834;2024-01-30T05:09:38;4.20;89.00
58809;DHT22;44579;51.672;7.834;2024-01-30T05:12:05;4.10;89.00
58809;DHT22;44579;51.672;7.834;2024-01-30T05:14:32;4.10;89.10
58809;DHT22;44579;51.672;7.834;2024-01-30T05:16:58;4.10;89.10
58809;DHT22;44579;51.672;7.834;2024-01-30T05:19:25;4.10;89.00
58809;DHT22;44579;51.672;7.834;2024-01-30T05:21:52;4.10;89.10
58809;DHT22;44579;51.672;7.834;2024-01-30T05:24:19;4.10;89.10
58809;DHT22;44579;51.672;7.834;2024-01-30T05:26:47;4.00;89.00
58809;DHT22;44579;51.672;7.834;2024-01-30T05:29:17;4.00;89.00
58809;DHT22;44579;51.672;7.834;2024-01-30T05:31:44;4.00;89.10
58809;DHT22;44579;51.672;7.834;2024-01-30T05:34:11;4.00;89.10
58809;DHT22;44579;51.672;7.834;2024-01-30T05:36:37;4.00;89.10
58809;DHT22;44579;51.672;7.834;2024-01-30T05:39:04;4.00;89.10
58809;DHT22;44579;51.672;7.834;2024-01-30T05:41:34;4.00;89.10
58809;DHT22;44579;51.672;7.834;2024-01-30T05:44:01;4.00;89.10
58809;DHT22;44579;51.672;7.834;2024-01-30T05:46:28;4.00;89.00
58809;DHT22;44579;51.672;7.834;2024-01-30T05:48:55;4.00;89.00
58809;DHT22;44579;51.672;7.834;2024-01-30T05:51:25;4.00;89.00
58809;DHT22;44579;51.672;7.834;2024-01-30T05:53:52;4.00;89.00
58809;DHT22;44579;51.672;7.834;2024-01-30T05:56:18;4.00;89.10
58809;DHT22;44579;51.672;7.834;2024-01-30T05:58:45;4.00;89.10
58809;DHT22;44579;51.672;7.834;2024-01-30T06:01:12;4.00;89.10
58809;DHT22;44579;51.672;7.834;2024-01-30T06:03:39;4.00;89.10
58809;DHT22;44579;51.672;7.834;2024-01-30T06:06:06;4.00;89.10
58809;DHT22;44579;51.672;7.834;2024-01-30T06:08:33;4.00;89.10
58809;DHT22;44579;51.672;7.834;2024-01-30T06:11:00;4.10;89.20
58809;DHT22;44579;51.672;7.834;2024-01-30T06:13:27;4.10;89.10
58809;DHT22;44579;51.672;7.834;2024-01-30T06:15:54;4.10;89.00
58809;DHT22;44579;51.672;7.834;2024-01-30T06:18:21;4.00;89.00
58809;DHT22;44579;51.672;7.834;2024-01-30T06:20:48;4.00;89.10
58809;DHT22;44579;51.672;7.834;2024-01-30T06:23:15;4.00;89.10
58809;DHT22;44579;51.672;7.834;2024-01-30T06:25:41;4.00;89.20
58809;DHT22;44579;51.672;7.834;2024-01-30T06:28:09;4.00;89.20
58809;DHT22;44579;51.672;7.834;2024-01-30T06:30:44;4.00;89.20
58809;DHT22;44579;51.672;7.834;2024-01-30T06:33:19;4.10;89.20
58809;DHT22;44579;51.672;7.834;2024-01-30T06:36:00;4.10;89.20
58809;DHT22;44579;51.672;7.834;2024-01-30T06:38:27;4.10;89.20
58809;DHT22;44579;51.672;7.834;2024-01-30T06:40:57;4.10;89.20
58809;DHT22;44579;51.672;7.834;2024-01-30T06:43:26;4.20;89.20
58809;DHT22;44579;51.672;7.834;2024-01-30T06:45:57;4.10;89.20
58809;DHT22;44579;51.672;7.834;2024-01-30T06:48:25;4.20;89.20
58809;DHT22;44579;51.672;7.834;2024-01-30T06:50:55;4.10;89.20
58809;DHT22;44579;51.672;7.834;2024-01-30T06:53:21;4.10;89.30
58809;DHT22;44579;51.672;7.834;2024-01-30T06:55:48;4.10;89.30
58809;DHT22;44579;51.672;7.834;2024-01-30T06:58:15;4.20;89.40
58809;DHT22;44579;51.672;7.834;2024-01-30T07:00:42;4.20;89.40
58809;DHT22;44579;51.672;7.834;2024-01-30T07:03:09;4.20;89.30
58809;DHT22;44579;51.672;7.834;2024-01-30T07:05:36;4.20;89.40
58809;DHT22;44579;51.672;7.834;2024-01-30T07:08:02;4.20;89.30
58809;DHT22;44579;51.672;7.834;2024-01-30T07:10:29;4.20;89.30
58809;DHT22;44579;51.672;7.834;2024-01-30T07:12:58;4.20;89.40
58809;DHT22;44579;51.672;7.834;2024-01-30T07:15:25;4.20;89.40
58809;DHT22;44579;51.672;7.834;2024-01-30T07:17:52;4.20;89.40
58809;DHT22;44579;51.672;7.834;2024-01-30T07:20:19;4.30;89.50
58809;DHT22;44579;51.672;7.834;2024-01-30T07:22:47;4.30;89.50
58809;DHT22;44579;51.672;7.834;2024-01-30T07:25:15;4.30;89.50
58809;DHT22;44579;51.672;7.834;2024-01-30T07:27:43;4.30;89.50
58809;DHT22;44579;51.672;7.834;2024-01-30T07:30:11;4.30;89.50
58809;DHT22;44579;51.672;7.834;2024-01-30T07:32:38;4.30;89.70
58809;DHT22;44579;51.672;7.834;2024-01-30T07:35:07;4.40;89.70
58809;DHT22;44579;51.672;7.834;2024-01-30T07:37:35;4.40;89.60
58809;DHT22;44579;51.672;7.834;2024-01-30T07:40:02;4.40;89.60
58809;DHT22;44579;51.672;7.834;2024-01-30T07:42:30;4.40;89.70
58809;DHT22;44579;51.672;7.834;2024-01-30T07:44:57;4.40;89.70
58809;DHT22;44579;51.672;7.834;2024-01-30T07:47:24;4.50;89.70
58809;DHT22;44579;51.672;7.834;2024-01-30T07:49:51;4.50;89.70
58809;DHT22;44579;51.672;7.834;2024-01-30T07:52:19;4.50;89.70
58809;DHT22;44579;51.672;7.834;2024-01-30T07:54:46;4.60;89.80
58809;DHT22;44579;51.672;7.834;2024-01-30T07:57:13;4.60;89.70
58809;DHT22;44579;51.672;7.834;2024-01-30T07:59:42;4.70;89.80
58809;DHT22;44579;51.672;7.834;2024-01-30T08:02:09;4.70;89.80
58809;DHT22;44579;51.672;7.834;2024-01-30T08:04:35;4.70;89.80
58809;DHT22;44579;51.672;7.834;2024-01-30T08:07:02;4.80;89.80
58809;DHT22;44579;51.672;7.834;2024-01-30T08:09:30;4.80;89.80
58809;DHT22;44579;51.672;7.834;2024-01-30T08:11:56;4.90;90.00
58809;DHT22;44579;51.672;7.834;2024-01-30T08:14:26;4.90;89.90
58809;DHT22;44579;51.672;7.834;2024-01-30T08:16:53;5.00;90.00
58809;DHT22;44579;51.672;7.834;2024-01-30T08:19:20;5.00;90.00
58809;DHT22;44579;51.672;7.834;2024-01-30T08:21:47;5.10;90.00
58809;DHT22;44579;51.672;7.834;2024-01-30T08:24:14;5.10;90.00
58809;DHT22;44579;51.672;7.834;2024-01-30T08:26:41;5.20;90.00
58809;DHT22;44579;51.672;7.834;2024-01-30T08:29:08;5.30;90.10
58809;DHT22;44579;51.672;7.834;2024-01-30T08:31:35;5.30;90.10
58809;DHT22;44579;51.672;7.834;2024-01-30T08:34:02;5.40;90.10
58809;DHT22;44579;51.672;7.834;2024-01-30T08:36:29;5.40;90.10
58809;DHT22;44579;51.672;7.834;2024-01-30T08:38:56;5.50;90.10
58809;DHT22;44579;51.672;7.834;2024-01-30T08:41:28;5.50;90.10
58809;DHT22;44579;51.672;7.834;2024-01-30T08:43:55;5.60;90.20
58809;DHT22;44579;51.672;7.834;2024-01-30T08:46:22;5.60;90.20
58809;DHT22;44579;51.672;7.834;2024-01-30T08:48:49;5.70;90.20
58809;DHT22;44579;51.672;7.834;2024-01-30T08:51:16;5.70;90.20
58809;DHT22;44579;51.672;7.834;2024-01-30T08:53:43;5.80;90.30
58809;DHT22;44579;51.672;7.834;2024-01-30T08:56:13;5.80;90.30
58809;DHT22;44579;51.672;7.834;2024-01-30T08:58:43;5.90;90.30
58809;DHT22;44579;51.672;7.834;2024-01-30T09:01:12;5.90;90.30
58809;DHT22;44579;51.672;7.834;2024-01-30T09:03:40;6.00;90.30
58809;DHT22;44579;51.672;7.834;2024-01-30T09:06:10;6.00;90.40
58809;DHT22;44579;51.672;7.834;2024-01-30T09:08:37;6.10;90.40
58809;DHT22;44579;51.672;7.834;2024-01-30T09:11:14;6.20;90.40
58809;DHT22;44579;51.672;7.834;2024-01-30T09:13:43;6.20;90.40
58809;DHT22;44579;51.672;7.834;2024-01-30T09:16:10;6.20;90.40
58809;DHT22;44579;51.672;7.834;2024-01-30T09:18:40;6.30;90.50
58809;DHT22;44579;51.672;7.834;2024-01-30T09:21:07;6.30;90.90
58809;DHT22;44579;51.672;7.834;2024-01-30T09:23:34;6.40;90.50
58809;DHT22;44579;51.672;7.834;2024-01-30T09:26:00;6.40;90.50
58809;DHT22;44579;51.672;7.834;2024-01-30T09:28:27;6.50;90.60
58809;DHT22;44579;51.672;7.834;2024-01-30T09:30:54;6.50;90.60
58809;DHT22;44579;51.672;7.834;2024-01-30T09:33:21;6.60;90.60
58809;DHT22;44579;51.672;7.834;2024-01-30T09:35:48;6.70;90.60
58809;DHT22;44579;51.672;7.834;2024-01-30T09:38:15;6.70;90.60
58809;DHT22;44579;51.672;7.834;2024-01-30T09:40:42;6.80;90.60
58809;DHT22;44579;51.672;7.834;2024-01-30T09:43:08;6.90;90.60
58809;DHT22;44579;51.672;7.834;2024-01-30T09:45:38;7.00;90.70
58809;DHT22;44579;51.672;7.834;2024-01-30T09:48:09;7.00;90.70
58809;DHT22;44579;51.672;7.834;2024-01-30T09:50:36;7.10;90.70
58809;DHT22;44579;51.672;7.834;2024-01-30T09:53:04;7.20;90.80
58809;DHT22;44579;51.672;7.834;2024-01-30T09:55:31;7.20;90.80
58809;DHT22;44579;51.672;7.834;2024-01-30T09:57:58;7.30;90.80
58809;DHT22;44579;51.672;7.834;2024-01-30T10:00:26;7.40;90.80
58809;DHT22;44579;51.672;7.834;2024-01-30T10:02:54;7.40;90.80
58809;DHT22;44579;51.672;7.834;2024-01-30T10:05:20;7.40;90.80
58809;DHT22;44579;51.672;7.834;2024-01-30T10:07:53;7.50;90.90
58809;DHT22;44579;51.672;7.834;2024-01-30T10:10:21;7.60;90.90
58809;DHT22;44579;51.672;7.834;2024-01-30T10:12:48;7.80;91.00
58809;DHT22;44579;51.672;7.834;2024-01-30T10:15:15;7.80;91.00
58809;DHT22;44579;51.672;7.834;2024-01-30T10:17:44;7.90;91.00
58809;DHT22;44579;51.672;7.834;2024-01-30T10:20:11;8.00;91.00
58809;DHT22;44579;51.672;7.834;2024-01-30T10:22:39;8.10;91.00
58809;DHT22;44579;51.672;7.834;2024-01-30T10:25:06;8.20;91.00
58809;DHT22;44579;51.672;7.834;2024-01-30T10:27:34;8.30;91.00
58809;DHT22;44579;51.672;7.834;2024-01-30T10:30:01;8.30;91.00
58809;DHT22;44579;51.672;7.834;2024-01-30T10:32:27;8.40;91.10
58809;DHT22;44579;51.672;7.834;2024-01-30T10:34:54;8.50;91.00
58809;DHT22;44579;51.672;7.834;2024-01-30T10:37:21;8.50;91.00
58809;DHT22;44579;51.672;7.834;2024-01-30T10:39:53;8.60;91.10
58809;DHT22;44579;51.672;7.834;2024-01-30T10:42:24;8.60;91.00
58809;DHT22;44579;51.672;7.834;2024-01-30T10:47:26;8.80;91.00
58809;DHT22;44579;51.672;7.834;2024-01-30T10:49:53;8.80;91.00
58809;DHT22;44579;51.672;7.834;2024-01-30T10:52:22;8.90;91.00
58809;DHT22;44579;51.672;7.834;2024-01-30T10:54:49;9.00;91.00
58809;DHT22;44579;51.672;7.834;2024-01-30T10:57:18;9.00;91.00
58809;DHT22;44579;51.672;7.834;2024-01-30T10:59:45;9.10;91.00
58809;DHT22;44579;51.672;7.834;2024-01-30T11:02:13;9.20;91.10
58809;DHT22;44579;51.672;7.834;2024-01-30T11:04:41;9.20;91.10
58809;DHT22;44579;51.672;7.834;2024-01-30T11:07:17;9.20;91.20
58809;DHT22;44579;51.672;7.834;2024-01-30T11:09:51;9.30;91.20
58809;DHT22;44579;51.672;7.834;2024-01-30T11:12:22;9.40;91.20
58809;DHT22;44579;51.672;7.834;2024-01-30T11:14:50;9.40;91.30
58809;DHT22;44579;51.672;7.834;2024-01-30T11:17:17;9.50;91.30
58809;DHT22;44579;51.672;7.834;2024-01-30T11:19:44;9.50;91.30
58809;DHT22;44579;51.672;7.834;2024-01-30T11:22:13;9.60;91.40
58809;DHT22;44579;51.672;7.834;2024-01-30T11:24:40;9.60;91.40
58809;DHT22;44579;51.672;7.834;2024-01-30T11:27:09;9.60;91.50
58809;DHT22;44579;51.672;7.834;2024-01-30T11:29:39;9.70;91.50
58809;DHT22;44579;51.672;7.834;2024-01-30T11:32:06;9.80;91.60
58809;DHT22;44579;51.672;7.834;2024-01-30T11:34:33;9.90;91.60
58809;DHT22;44579;51.672;7.834;2024-01-30T11:37:03;9.90;91.60
58809;DHT22;44579;51.672;7.834;2024-01-30T11:39:30;10.00;91.60
58809;DHT22;44579;51.672;7.834;2024-01-30T11:41:57;10.10;91.70
58809;DHT22;44579;51.672;7.834;2024-01-30T11:44:25;10.10;91.70
58809;DHT22;44579;51.672;7.834;2024-01-30T11:46:52;10.10;91.80
58809;DHT22;44579;51.672;7.834;2024-01-30T11:49:19;10.30;91.90
58809;DHT22;44579;51.672;7.834;2024-01-30T11:51:47;10.40;91.80
58809;DHT22;44579;51.672;7.834;2024-01-30T11:54:18;10.50;91.90
58809;DHT22;44579;51.672;7.834;2024-01-30T11:56:45;10.60;91.80
58809;DHT22;44579;51.672;7.834;2024-01-30T11:59:13;10.70;91.90
58809;DHT22;44579;51.672;7.834;2024-01-30T12:01:41;10.80;92.00
58809;DHT22;44579;51.672;7.834;2024-01-30T12:04:08;11.00;92.00
58809;DHT22;44579;51.672;7.834;2024-01-30T12:06:37;11.00;91.90
58809;DHT22;44579;51.672;7.834;2024-01-30T12:09:05;11.00;92.00
58809;DHT22;44579;51.672;7.834;2024-01-30T12:11:45;11.00;92.10
58809;DHT22;44579;51.672;7.834;2024-01-30T12:14:12;10.90;92.20
58809;DHT22;44579;51.672;7.834;2024-01-30T12:16:40;11.00;92.30
58809;DHT22;44579;51.672;7.834;2024-01-30T12:19:08;11.10;92.30
58809;DHT22;44579;51.672;7.834;2024-01-30T12:21:37;11.20;92.20
58809;DHT22;44579;51.672;7.834;2024-01-30T12:24:04;11.20;92.40
58809;DHT22;44579;51.672;7.834;2024-01-30T12:26:37;11.30;92.30
58809;DHT22;44579;51.672;7.834;2024-01-30T12:29:04;11.40;92.40
58809;DHT22;44579;51.672;7.834;2024-01-30T12:31:32;11.40;92.20
58809;DHT22;44579;51.672;7.834;2024-01-30T12:34:02;11.40;92.30
58809;DHT22;44579;51.672;7.834;2024-01-30T12:36:30;11.30;92.30
58809;DHT22;44579;51.672;7.834;2024-01-30T12:39:10;11.30;92.40
58809;DHT22;44579;51.672;7.834;2024-01-30T12:41:38;11.40;92.40
58809;DHT22;44579;51.672;7.834;2024-01-30T12:44:08;11.40;92.40
58809;DHT22;44579;51.672;7.834;2024-01-30T12:46:36;11.40;92.50
58809;DHT22;44579;51.672;7.834;2024-01-30T12:49:03;11.60;92.40
58809;DHT22;44579;51.672;7.834;2024-01-30T12:51:30;11.60;92.40
58809;DHT22;44579;51.672;7.834;2024-01-30T12:54:04;11.60;92.40
58809;DHT22;44579;51.672;7.834;2024-01-30T12:56:36;11.70;92.30
58809;DHT22;44579;51.672;7.834;2024-01-30T12:59:13;11.70;92.30
58809;DHT22;44579;51.672;7.834;2024-01-30T13:01:40;11.70;92.30
58809;DHT22;44579;51.672;7.834;2024-01-30T13:04:07;11.60;92.30
58809;DHT22;44579;51.672;7.834;2024-01-30T13:06:34;11.60;92.30
58809;DHT22;44579;51.672;7.834;2024-01-30T13:09:01;11.60;92.30
58809;DHT22;44579;51.672;7.834;2024-01-30T13:11:53;11.60;92.30
58809;DHT22;44579;51.672;7.834;2024-01-30T13:14:22;11.60;92.30
58809;DHT22;44579;51.672;7.834;2024-01-30T13:16:49;11.60;92.30
58809;DHT22;44579;51.672;7.834;2024-01-30T13:19:16;11.50;92.20
58809;DHT22;44579;51.672;7.834;2024-01-30T13:25:32;11.50;92.40
58809;DHT22;44579;51.672;7.834;2024-01-30T13:28:01;11.40;92.30
58809;DHT22;44579;51.672;7.834;2024-01-30T13:30:39;11.40;92.30
58809;DHT22;44579;51.672;7.834;2024-01-30T13:33:41;11.40;92.30
58809;DHT22;44579;51.672;7.834;2024-01-30T13:37:03;11.30;92.30
58809;DHT22;44579;51.672;7.834;2024-01-30T13:51:08;11.30;92.20
58809;DHT22;44579;51.672;7.834;2024-01-30T13:53:35;11.30;92.20
58809;DHT22;44579;51.672;7.834;2024-01-30T14:01:27;11.20;92.20
58809;DHT22;44579;51.672;7.834;2024-01-30T14:04:38;11.10;92.20
58809;DHT22;44579;51.672;7.834;2024-01-30T14:07:51;11.10;92.20
58809;DHT22;44579;51.672;7.834;2024-01-30T14:11:15;11.20;92.10
58809;DHT22;44579;51.672;7.834;2024-01-30T14:14:18;11.20;92.00
58809;DHT22;44579;51.672;7.834;2024-01-30T14:17:16;11.20;91.90
58809;DHT22;44579;51.672;7.834;2024-01-30T14:19:44;11.20;91.90
58809;DHT22;44579;51.672;7.834;2024-01-30T14:22:10;11.20;91.80
58809;DHT22;44579;51.672;7.834;2024-01-30T14:27:56;11.20;91.80
58809;DHT22;44579;51.672;7.834;2024-01-30T14:30:23;11.20;91.80
58809;DHT22;44579;51.672;7.834;2024-01-30T14:32:50;11.20;91.70
58809;DHT22;44579;51.672;7.834;2024-01-30T14:35:27;11.20;91.70
58809;DHT22;44579;51.672;7.834;2024-01-30T14:38:56;11.20;91.70
58809;DHT22;44579;51.672;7.834;2024-01-30T14:45:38;11.10;91.80
58809;DHT22;44579;51.672;7.834;2024-01-30T14:48:15;11.10;91.80
58809;DHT22;44579;51.672;7.834;2024-01-30T14:50:42;11.10;91.80
58809;DHT22;44579;51.672;7.834;2024-01-30T14:57:08;11.00;91.70
58809;DHT22;44579;51.672;7.834;2024-01-30T14:59:35;11.00;91.70
58809;DHT22;44579;51.672;7.834;2024-01-30T15:02:02;11.10;91.60
58809;DHT22;44579;51.672;7.834;2024-01-30T15:04:31;11.10;91.60
58809;DHT22;44579;51.672;7.834;2024-01-30T15:06:59;11.10;91.60
58809;DHT22;44579;51.672;7.834;2024-01-30T15:09:27;11.10;91.70
58809;DHT22;44579;51.672;7.834;2024-01-30T15:11:57;11.10;91.70
58809;DHT22;44579;51.672;7.834;2024-01-30T15:14:25;11.10;91.70
58809;DHT22;44579;51.672;7.834;2024-01-30T15:16:54;11.20;91.60
58809;DHT22;44579;51.672;7.834;2024-01-30T15:19:29;11.20;91.60
58809;DHT22;44579;51.672;7.834;2024-01-30T15:21:56;11.30;91.60
58809;DHT22;44579;51.672;7.834;2024-01-30T15:24:23;11.30;91.60
58809;DHT22;44579;51.672;7.834;2024-01-30T15:26:51;11.30;91.50
58809;DHT22;44579;51.672;7.834;2024-01-30T15:29:19;11.20;91.50
58809;DHT22;44579;51.672;7.834;2024-01-30T15:31:52;11.20;91.50
58809;DHT22;44579;51.672;7.834;2024-01-30T15:34:19;11.20;91.50
58809;DHT22;44579;51.672;7.834;2024-01-30T15:36:47;11.20;91.40
58809;DHT22;44579;51.672;7.834;2024-01-30T15:39:19;11.20;91.40
58809;DHT22;44579;51.672;7.834;2024-01-30T15:41:52;11.10;91.40
58809;DHT22;44579;51.672;7.834;2024-01-30T15:44:20;11.10;91.40
58809;DHT22;44579;51.672;7.834;2024-01-30T15:46:47;11.00;91.40
58809;DHT22;44579;51.672;7.834;2024-01-30T15:49:22;11.00;91.30
58809;DHT22;44579;51.672;7.834;2024-01-30T15:51:49;10.90;91.30
58809;DHT22;44579;51.672;7.834;2024-01-30T15:54:16;10.80;91.30
58809;DHT22;44579;51.672;7.834;2024-01-30T15:56:44;10.80;91.30
58809;DHT22;44579;51.672;7.834;2024-01-30T15:59:11;10.70;91.30
58809;DHT22;44579;51.672;7.834;2024-01-30T16:01:38;10.70;91.20
58809;DHT22;44579;51.672;7.834;2024-01-30T16:04:05;10.60;91.20
58809;DHT22;44579;51.672;7.834;2024-01-30T16:06:39;10.60;91.20
58809;DHT22;44579;51.672;7.834;2024-01-30T16:09:09;10.60;91.20
58809;DHT22;44579;51.672;7.834;2024-01-30T16:11:43;10.60;91.20
58809;DHT22;44579;51.672;7.834;2024-01-30T16:14:17;10.60;91.00
58809;DHT22;44579;51.672;7.834;2024-01-30T16:16:44;10.60;90.90
58809;DHT22;44579;51.672;7.834;2024-01-30T16:19:11;10.70;90.80
58809;DHT22;44579;51.672;7.834;2024-01-30T16:21:38;10.70;90.60
58809;DHT22;44579;51.672;7.834;2024-01-30T16:24:05;10.70;90.50
58809;DHT22;44579;51.672;7.834;2024-01-30T16:26:32;10.70;90.40